Time;durP1;ratioP1;P1;durP2;ratioP2;P2;SDS_P1;SDS_P2;PMS_P1;PMS_P2;Temp;Humidity;BMP_temperature;BMP_pressure;BME280_temperature;BME280_humidity;BME280_pressure;Samples;Min_cycle;Max_cycle;Signal;HPM_P1;HPM_P2
2023/04/14 00:00:45;;;;;;;1.07;0.50;;;18.50;99.90;;;;;;5107747;28;20658;-79
2023/04/14 00:03:13;;;;;;;3.23;0.60;;;18.70;99.90;;;;;;5110070;28;20178;-79
2023/04/14 00:05:40;;;;;;;0.87;0.57;;;19.00;99.90;;;;;;5091393;28;20181;-80
2023/04/14 00:08:08;;;;;;;4.53;0.60;;;20.10;99.90;;;;;;5091313;28;20171;-79
2023/04/14 00:10:36;;;;;;;0.73;0.40;;;20.80;99.90;;;;;;5091298;28;20171;-72
2023/04/14 00:13:04;;;;;;;1.93;0.50;;;21.60;99.90;;;;;;5092454;28;20654;-76
2023/04/14 00:15:31;;;;;;;2.03;0.60;;;21.60;99.90;;;;;;5092615;28;20177;-71
2023/04/14 00:17:59;;;;;;;0.70;0.50;;;21.00;99.90;;;;;;5099323;28;20243;-76
2023/04/14 00:20:27;;;;;;;2.27;0.57;;;20.80;99.90;;;;;;5114535;28;20589;-77
2023/04/14 00:22:55;;;;;;;1.33;0.60;;;20.80;99.90;;;;;;5113314;28;20227;-77
2023/04/14 00:25:23;;;;;;;1.77;0.80;;;20.50;99.90;;;;;;5114213;28;20672;-78
2023/04/14 00:27:50;;;;;;;4.83;0.80;;;20.40;99.90;;;;;;5101245;28;20179;-76
2023/04/14 00:30:18;;;;;;;1.43;0.53;;;20.40;99.90;;;;;;5095829;28;20181;-78
2023/04/14 00:32:46;;;;;;;2.27;0.70;;;20.40;99.90;;;;;;5095309;28;20262;-77
2023/04/14 00:35:13;;;;;;;3.17;0.50;;;20.60;99.90;;;;;;5114477;28;20178;-74
2023/04/14 00:37:41;;;;;;;2.30;0.70;;;20.70;99.90;;;;;;5114838;28;20230;-79
2023/04/14 00:40:10;;;;;;;2.73;0.60;;;20.60;99.90;;;;;;5105153;28;20190;-77
2023/04/14 00:42:45;;;;;;;1.80;0.67;;;20.70;99.90;;;;;;5094457;28;20187;-76
2023/04/14 00:45:14;;;;;;;0.93;0.60;;;20.90;99.90;;;;;;5094548;28;20178;-80
2023/04/14 00:47:48;;;;;;;2.63;0.80;;;21.10;99.90;;;;;;5111978;28;20201;-78
2023/04/14 00:50:20;;;;;;;4.20;0.70;;;21.00;99.90;;;;;;5105189;28;20194;-70
2023/04/14 00:52:51;;;;;;;5.33;1.00;;;21.10;99.90;;;;;;5102304;28;20193;-78
2023/04/14 00:55:20;;;;;;;2.57;0.63;;;21.30;99.90;;;;;;5094345;28;20183;-76
2023/04/14 00:57:48;;;;;;;2.77;0.60;;;21.60;99.90;;;;;;5092867;28;20226;-78
2023/04/14 01:00:16;;;;;;;3.73;0.83;;;22.00;99.90;;;;;;5094081;28;20178;-76
2023/04/14 01:02:44;;;;;;;1.90;0.77;;;22.80;99.90;;;;;;5094449;28;20191;-78
2023/04/14 01:05:12;;;;;;;6.07;0.70;;;23.60;99.90;;;;;;5094252;28;20175;-77
2023/04/14 01:07:40;;;;;;;1.13;0.50;;;24.20;99.90;;;;;;5093864;28;20262;-78
2023/04/14 01:10:09;;;;;;;2.40;0.57;;;24.40;99.90;;;;;;5094060;28;20232;-78
2023/04/14 01:13:06;;;;;;;2.97;0.73;;;24.10;99.90;;;;;;5092697;28;20183;-76
2023/04/14 01:15:45;;;;;;;4.97;0.87;;;24.70;99.90;;;;;;5094040;28;20224;-76
2023/04/14 01:18:24;;;;;;;1.47;0.43;;;24.40;99.90;;;;;;5093278;28;20635;-77
2023/04/14 01:21:05;;;;;;;4.43;0.70;;;24.00;99.90;;;;;;5094183;28;20229;-78
2023/04/14 01:23:39;;;;;;;2.73;0.70;;;23.30;99.90;;;;;;5100031;28;20202;-78
2023/04/14 01:26:29;;;;;;;3.47;0.77;;;23.00;99.90;;;;;;5093569;28;20626;-78
2023/04/14 01:29:06;;;;;;;2.57;0.70;;;22.80;99.90;;;;;;5093727;28;20179;-78
2023/04/14 01:31:54;;;;;;;6.37;1.20;;;22.60;99.90;;;;;;5096332;28;20193;-75
2023/04/14 01:34:39;;;;;;;1.40;0.80;;;22.10;99.90;;;;;;5093877;28;20210;-75
2023/04/14 01:37:20;;;;;;;4.00;1.10;;;22.10;99.90;;;;;;5102685;28;20214;-77
2023/04/14 01:39:54;;;;;;;5.87;1.20;;;21.90;99.90;;;;;;5107062;28;20185;-77
2023/04/14 01:42:30;;;;;;;2.77;0.90;;;21.40;99.90;;;;;;5104616;28;20183;-77
2023/04/14 01:45:02;;;;;;;1.90;0.73;;;20.70;99.90;;;;;;5096186;28;20202;-74
2023/04/14 01:47:31;;;;;;;5.60;1.30;;;20.10;99.90;;;;;;5105648;28;20182;-77
2023/04/14 01:50:00;;;;;;;7.50;1.47;;;19.60;99.90;;;;;;5112954;28;20170;-77
2023/04/14 01:52:29;;;;;;;5.00;0.70;;;19.50;99.90;;;;;;5113521;28;20185;-74
2023/04/14 01:55:01;;;;;;;1.70;0.70;;;19.50;99.90;;;;;;5096208;28;20198;-79
2023/04/14 01:57:29;;;;;;;4.87;0.87;;;20.60;99.90;;;;;;5113361;28;20670;-79
2023/04/14 02:00:00;;;;;;;5.17;1.03;;;21.40;99.90;;;;;;5113118;28;20640;-78
2023/04/14 02:02:28;;;;;;;2.53;0.80;;;21.90;99.90;;;;;;5104926;28;20661;-77
2023/04/14 02:04:57;;;;;;;3.00;0.80;;;22.70;99.90;;;;;;5092946;28;20270;-78
2023/04/14 02:07:27;;;;;;;3.27;0.70;;;23.70;99.90;;;;;;5092847;28;20171;-79
2023/04/14 02:09:57;;;;;;;1.17;0.50;;;24.80;99.90;;;;;;5093369;28;20183;-80
2023/04/14 02:12:28;;;;;;;3.07;0.80;;;25.40;99.90;;;;;;5108144;28;20190;-78
2023/04/14 02:14:57;;;;;;;3.20;0.80;;;26.20;99.90;;;;;;5113080;28;20188;-79
2023/04/14 02:17:25;;;;;;;2.73;0.80;;;26.20;99.90;;;;;;5112987;28;20199;-80
2023/04/14 02:19:55;;;;;;;2.00;0.63;;;26.10;99.90;;;;;;5112823;28;20245;-78
2023/04/14 02:22:22;;;;;;;3.37;1.33;;;25.50;99.90;;;;;;5104540;28;20195;-82
2023/04/14 02:24:53;;;;;;;3.33;0.80;;;25.00;99.90;;;;;;5101475;28;20194;-76
2023/04/14 02:27:57;;;;;;;3.70;0.87;;;24.40;99.90;;;;;;5105822;28;20174;-74
2023/04/14 02:30:32;;;;;;;3.50;0.60;;;23.10;99.90;;;;;;5091324;28;20195;-80
2023/04/14 02:33:09;;;;;;;4.47;0.80;;;23.30;99.90;;;;;;5092523;28;20167;-77
2023/04/14 02:35:47;;;;;;;6.07;0.93;;;24.60;99.90;;;;;;5092269;28;20332;-77
2023/04/14 02:38:26;;;;;;;2.43;0.70;;;25.40;99.90;;;;;;5092290;28;20222;-78
2023/04/14 02:40:54;;;;;;;2.57;0.80;;;26.10;99.90;;;;;;5092247;28;20183;-78
2023/04/14 02:43:31;;;;;;;2.07;0.70;;;27.00;99.90;;;;;;5091922;28;20191;-78
2023/04/14 02:46:01;;;;;;;2.47;0.70;;;26.40;99.90;;;;;;5092253;28;20270;-77
2023/04/14 02:48:32;;;;;;;1.93;0.93;;;25.10;99.90;;;;;;5092698;28;20224;-78
2023/04/14 02:51:02;;;;;;;1.60;0.70;;;24.50;99.90;;;;;;5114535;28;20175;-77
2023/04/14 02:53:31;;;;;;;5.53;1.10;;;24.20;99.90;;;;;;5115575;28;20677;-75
2023/04/14 02:55:59;;;;;;;3.03;0.70;;;24.50;99.90;;;;;;5112168;28;20201;-77
2023/04/14 02:58:28;;;;;;;4.73;0.73;;;24.40;99.90;;;;;;5111734;28;20220;-86
2023/04/14 03:00:57;;;;;;;4.27;0.97;;;24.20;99.90;;;;;;5108498;28;20587;-79
2023/04/14 03:03:27;;;;;;;4.53;1.00;;;24.20;99.90;;;;;;5113087;28;20179;-78
2023/04/14 03:05:55;;;;;;;4.53;0.83;;;23.80;99.90;;;;;;5113348;28;20166;-77
2023/04/14 03:08:24;;;;;;;4.27;1.00;;;23.30;99.90;;;;;;5113044;28;20179;-74
2023/04/14 03:10:54;;;;;;;2.80;0.87;;;22.90;99.90;;;;;;5094449;28;20642;-76
2023/04/14 03:13:25;;;;;;;4.60;0.87;;;22.70;99.90;;;;;;5096201;28;20583;-77
2023/04/14 03:15:54;;;;;;;4.07;1.10;;;22.40;99.90;;;;;;5091633;28;20182;-78
2023/04/14 03:18:23;;;;;;;4.20;0.80;;;22.50;99.90;;;;;;5097797;28;20282;-77
2023/04/14 03:20:54;;;;;;;5.03;0.70;;;22.80;99.90;;;;;;5101347;28;20297;-77
2023/04/14 03:23:24;;;;;;;6.63;1.20;;;23.10;99.90;;;;;;5094902;28;20650;-77
2023/04/14 03:25:54;;;;;;;3.63;0.90;;;23.50;99.90;;;;;;5100572;28;20273;-78
2023/04/14 03:28:25;;;;;;;5.90;0.80;;;23.20;99.90;;;;;;5096125;28;20171;-78
2023/04/14 03:30:54;;;;;;;3.23;0.70;;;22.70;99.90;;;;;;5102871;28;20201;-78
2023/04/14 03:33:28;;;;;;;4.40;0.60;;;22.40;99.90;;;;;;5092131;28;20175;-77
2023/04/14 03:35:59;;;;;;;3.60;1.17;;;22.90;99.90;;;;;;5092591;28;20550;-75
2023/04/14 03:38:28;;;;;;;2.37;0.70;;;24.00;99.90;;;;;;5092183;28;20229;-76
2023/04/14 03:41:00;;;;;;;6.03;0.70;;;25.10;99.90;;;;;;5091676;28;20233;-77
2023/04/14 03:43:32;;;;;;;6.80;0.90;;;25.10;99.90;;;;;;5091658;28;20175;-73
2023/04/14 03:46:04;;;;;;;3.83;0.60;;;24.50;99.90;;;;;;5091234;28;20180;-75
2023/04/14 03:48:33;;;;;;;4.07;1.00;;;24.60;99.90;;;;;;5096782;28;20173;-76
2023/04/14 03:51:05;;;;;;;6.20;1.10;;;25.20;99.90;;;;;;5100509;28;20649;-75
2023/04/14 03:53:35;;;;;;;5.60;0.90;;;25.60;99.90;;;;;;5106604;28;20661;-76
2023/04/14 03:56:03;;;;;;;5.40;0.70;;;25.80;99.90;;;;;;5115643;28;20185;-76
2023/04/14 03:58:32;;;;;;;4.70;0.90;;;26.10;99.90;;;;;;5113777;28;20209;-77
2023/04/14 04:01:01;;;;;;;5.03;0.80;;;25.90;99.90;;;;;;5103435;28;20243;-77
2023/04/14 04:03:29;;;;;;;1.50;0.63;;;25.20;99.90;;;;;;5098840;28;20189;-77
2023/04/14 04:05:58;;;;;;;4.03;0.77;;;24.60;99.90;;;;;;5095115;28;20274;-78
2023/04/14 04:08:26;;;;;;;4.03;0.90;;;23.80;99.90;;;;;;5104271;28;20676;-77
2023/04/14 04:10:56;;;;;;;3.80;0.90;;;23.30;99.90;;;;;;5105638;28;20189;-76
2023/04/14 04:13:25;;;;;;;3.70;0.83;;;22.70;99.90;;;;;;5094904;28;20222;-72
2023/04/14 04:15:54;;;;;;;6.53;1.10;;;22.60;99.90;;;;;;5095135;28;20174;-71
2023/04/14 04:18:25;;;;;;;3.20;0.67;;;22.50;99.90;;;;;;5099543;28;20701;-72
2023/04/14 04:20:56;;;;;;;5.57;0.87;;;22.80;99.90;;;;;;5094837;28;20186;-72
2023/04/14 04:23:25;;;;;;;3.03;0.70;;;23.00;99.90;;;;;;5098281;28;20179;-70
2023/04/14 04:25:54;;;;;;;5.60;0.80;;;23.00;99.90;;;;;;5095094;28;20214;-72
2023/04/14 04:28:22;;;;;;;4.80;0.93;;;22.90;99.90;;;;;;5094650;28;20543;-72
2023/04/14 04:30:52;;;;;;;3.43;0.83;;;22.80;99.90;;;;;;5094605;28;20240;-71
2023/04/14 04:33:21;;;;;;;5.13;0.80;;;22.90;99.90;;;;;;5094599;28;20171;-71
2023/04/14 04:35:49;;;;;;;2.50;0.80;;;22.90;99.90;;;;;;5094491;28;20574;-72
2023/04/14 04:38:17;;;;;;;2.80;0.80;;;22.80;99.90;;;;;;5094285;28;20685;-72
2023/04/14 04:40:45;;;;;;;2.30;0.70;;;22.60;99.90;;;;;;5094470;28;20198;-72
2023/04/14 04:43:13;;;;;;;6.50;0.80;;;23.00;99.90;;;;;;5094422;28;20229;-72
2023/04/14 04:46:22;;;;;;;3.70;0.63;;;23.50;99.90;;;;;;5094403;28;20182;-71
2023/04/14 04:48:53;;;;;;;1.63;0.67;;;23.60;99.90;;;;;;5060161;28;20247;-73
2023/04/14 04:51:21;;;;;;;5.23;0.90;;;23.40;99.90;;;;;;5094678;28;20217;-73
2023/04/14 04:53:49;;;;;;;4.27;0.77;;;23.30;99.90;;;;;;5105384;28;20178;-69
2023/04/14 04:56:16;;;;;;;3.60;1.00;;;23.40;99.90;;;;;;5100698;28;20182;-77
2023/04/14 04:58:45;;;;;;;2.83;0.73;;;23.50;99.90;;;;;;5114293;28;20665;-77
2023/04/14 05:01:15;;;;;;;4.77;0.93;;;23.60;99.90;;;;;;5109225;28;20186;-78
2023/04/14 05:03:43;;;;;;;3.90;0.80;;;23.80;99.90;;;;;;5093917;28;20634;-80
2023/04/14 05:06:11;;;;;;;2.37;0.70;;;23.90;99.90;;;;;;5093525;28;20733;-77
2023/04/14 05:08:39;;;;;;;4.13;0.93;;;23.70;99.90;;;;;;5106233;28;20194;-78
2023/04/14 05:11:07;;;;;;;2.90;0.80;;;23.50;99.90;;;;;;5111211;28;20179;-72
2023/04/14 05:13:34;;;;;;;6.70;1.20;;;23.10;99.90;;;;;;5114070;28;20555;-78
2023/04/14 05:16:06;;;;;;;4.80;0.80;;;23.00;99.90;;;;;;5114157;28;20193;-77
2023/04/14 05:18:35;;;;;;;3.40;0.90;;;23.10;99.90;;;;;;5113842;28;20237;-79
2023/04/14 05:21:07;;;;;;;4.00;1.00;;;23.10;99.90;;;;;;5111248;28;20223;-78
2023/04/14 05:23:37;;;;;;;3.73;0.73;;;23.20;99.90;;;;;;5093721;28;20171;-80
2023/04/14 05:26:05;;;;;;;3.97;0.80;;;22.90;99.90;;;;;;5092467;28;20190;-79
2023/04/14 05:28:34;;;;;;;4.00;0.67;;;22.80;99.90;;;;;;5093523;28;20223;-79
2023/04/14 05:31:02;;;;;;;3.97;1.10;;;22.50;99.90;;;;;;5107938;28;20186;-79
2023/04/14 05:33:29;;;;;;;4.97;0.90;;;22.50;99.90;;;;;;5093489;28;20577;-77
2023/04/14 05:35:57;;;;;;;3.83;0.73;;;22.50;99.90;;;;;;5093366;28;20190;-81
2023/04/14 05:38:25;;;;;;;2.17;0.93;;;22.60;99.90;;;;;;5093289;28;20278;-76
2023/04/14 05:40:53;;;;;;;3.17;0.57;;;22.60;99.90;;;;;;5093129;28;20531;-78
2023/04/14 05:43:21;;;;;;;3.60;0.77;;;22.80;99.90;;;;;;5097352;28;20182;-77
2023/04/14 05:45:49;;;;;;;3.53;0.60;;;22.80;99.90;;;;;;5110602;28;20182;-79
2023/04/14 05:48:18;;;;;;;2.90;0.87;;;22.60;99.90;;;;;;5093015;28;20265;-76
2023/04/14 05:50:45;;;;;;;4.10;0.63;;;22.60;99.90;;;;;;5093137;28;20184;-80
2023/04/14 05:53:14;;;;;;;2.77;0.73;;;22.60;99.90;;;;;;5095169;28;20190;-77
2023/04/14 05:55:41;;;;;;;3.07;0.73;;;22.60;99.90;;;;;;5106618;28;20538;-81
2023/04/14 05:58:09;;;;;;;1.50;0.73;;;22.60;99.90;;;;;;5092934;28;20659;-79
2023/04/14 06:00:37;;;;;;;4.67;0.90;;;22.60;99.90;;;;;;5092787;28;20182;-78
2023/04/14 06:03:05;;;;;;;4.13;0.77;;;22.50;99.90;;;;;;5104394;28;20269;-77
2023/04/14 06:05:33;;;;;;;4.03;0.80;;;22.40;99.90;;;;;;5113031;28;20209;-78
2023/04/14 06:08:01;;;;;;;5.50;1.30;;;22.30;99.90;;;;;;5111831;28;20703;-78
2023/04/14 06:10:30;;;;;;;3.80;0.83;;;22.20;99.90;;;;;;5099224;28;20183;-78
2023/04/14 06:12:58;;;;;;;1.87;0.90;;;22.00;99.90;;;;;;5092893;28;20185;-78
2023/04/14 06:15:28;;;;;;;5.37;1.43;;;21.80;99.90;;;;;;5113071;28;20618;-77
2023/04/14 06:17:56;;;;;;;2.40;0.80;;;21.60;99.90;;;;;;5112007;28;20259;-74
2023/04/14 06:20:24;;;;;;;3.23;0.83;;;21.40;99.90;;;;;;5101252;27;20226;-79
2023/04/14 06:22:52;;;;;;;2.73;0.73;;;21.30;99.90;;;;;;5106400;28;20197;-79
2023/04/14 06:25:20;;;;;;;3.57;0.80;;;21.30;99.90;;;;;;5111728;28;20174;-77
2023/04/14 06:27:48;;;;;;;4.23;0.97;;;21.10;99.90;;;;;;5112804;28;20651;-78
2023/04/14 06:30:15;;;;;;;3.77;1.33;;;20.90;99.90;;;;;;5112354;28;20175;-77
2023/04/14 06:32:43;;;;;;;5.50;1.47;;;20.80;99.90;;;;;;5095496;28;20183;-77
2023/04/14 06:35:11;;;;;;;4.27;1.20;;;20.70;99.90;;;;;;5112142;28;20273;-77
2023/04/14 06:37:39;;;;;;;4.30;1.10;;;20.60;99.90;;;;;;5112995;28;20682;-77
2023/04/14 06:40:07;;;;;;;6.47;0.93;;;20.50;99.90;;;;;;5113284;28;20266;-76
2023/04/14 06:42:35;;;;;;;3.27;0.80;;;20.40;99.90;;;;;;5100122;27;20224;-76
2023/04/14 06:45:03;;;;;;;3.27;0.97;;;20.40;99.90;;;;;;5091866;28;20179;-73
2023/04/14 06:47:30;;;;;;;3.90;1.17;;;20.20;99.90;;;;;;5091781;28;20190;-78
2023/04/14 06:49:58;;;;;;;3.47;1.10;;;20.20;99.90;;;;;;5091962;28;20229;-77
2023/04/14 06:52:26;;;;;;;6.67;1.10;;;20.20;99.90;;;;;;5092000;28;20175;-77
2023/04/14 06:54:53;;;;;;;3.60;1.10;;;20.00;99.90;;;;;;5091657;28;20266;-78
2023/04/14 06:57:21;;;;;;;5.97;1.50;;;19.80;99.90;;;;;;5091679;28;20236;-77
2023/04/14 06:59:49;;;;;;;1.63;0.80;;;19.70;99.90;;;;;;5091676;28;20206;-77
2023/04/14 07:02:17;;;;;;;3.67;0.70;;;19.60;99.90;;;;;;5106640;28;20183;-75
2023/04/14 07:04:45;;;;;;;7.77;1.40;;;19.50;99.90;;;;;;5111551;28;20206;-79
2023/04/14 07:07:13;;;;;;;4.00;1.33;;;19.50;99.90;;;;;;5110615;28;20180;-77
2023/04/14 07:09:44;;;;;;;4.87;1.10;;;19.30;99.90;;;;;;5112065;28;20505;-77
2023/04/14 07:12:16;;;;;;;5.37;1.17;;;19.30;99.90;;;;;;5112113;28;20536;-77
2023/04/14 07:14:50;;;;;;;9.63;1.40;;;19.20;99.90;;;;;;5112125;28;20200;-76
2023/04/14 07:17:19;;;;;;;5.60;1.00;;;19.20;99.90;;;;;;5111960;28;20212;-77
2023/04/14 07:19:47;;;;;;;5.20;1.13;;;19.10;99.90;;;;;;5110420;28;20616;-78
2023/04/14 07:22:15;;;;;;;5.17;1.00;;;19.00;99.90;;;;;;5111943;28;20248;-76
2023/04/14 07:24:43;;;;;;;6.70;1.10;;;19.00;99.90;;;;;;5111919;28;20181;-77
2023/04/14 07:27:14;;;;;;;2.60;1.20;;;18.90;99.90;;;;;;5111774;28;20238;-77
2023/04/14 07:29:42;;;;;;;8.37;1.23;;;18.80;99.90;;;;;;5116052;28;20252;-77
2023/04/14 07:32:12;;;;;;;4.07;1.13;;;18.70;99.90;;;;;;5116106;28;20284;-77
2023/04/14 07:34:42;;;;;;;10.37;1.33;;;18.60;99.90;;;;;;5116099;28;20209;-77
2023/04/14 07:37:10;;;;;;;4.13;1.07;;;18.50;99.90;;;;;;5115664;28;20262;-76
2023/04/14 07:39:38;;;;;;;3.87;1.10;;;18.40;99.90;;;;;;5116045;28;20182;-77
2023/04/14 07:42:06;;;;;;;1.63;0.90;;;18.40;99.90;;;;;;5115945;28;20180;-77
2023/04/14 07:44:34;;;;;;;6.17;1.17;;;18.40;99.90;;;;;;5115886;28;20171;-75
2023/04/14 07:47:01;;;;;;;5.77;1.60;;;18.30;99.90;;;;;;5115750;28;20731;-76
2023/04/14 07:49:30;;;;;;;3.17;1.10;;;18.20;99.90;;;;;;5115898;28;20175;-78
2023/04/14 07:51:58;;;;;;;6.30;1.30;;;18.20;99.90;;;;;;5115729;28;20584;-76
2023/04/14 07:54:30;;;;;;;3.70;1.27;;;18.10;99.90;;;;;;5115523;28;20973;-77
2023/04/14 07:56:58;;;;;;;4.07;1.40;;;18.10;99.90;;;;;;5115428;27;20267;-76
2023/04/14 07:59:26;;;;;;;5.70;1.43;;;18.00;99.90;;;;;;5115490;28;20177;-78
2023/04/14 08:01:53;;;;;;;5.07;1.37;;;17.90;99.90;;;;;;5115827;28;20170;-78
2023/04/14 08:04:21;;;;;;;3.97;1.50;;;17.80;99.90;;;;;;5115586;28;20171;-78
2023/04/14 08:06:49;;;;;;;3.47;1.43;;;17.80;99.90;;;;;;5106359;28;20859;-77
2023/04/14 08:09:17;;;;;;;3.33;1.30;;;17.70;99.90;;;;;;5106662;27;20183;-74
2023/04/14 08:11:45;;;;;;;6.43;1.60;;;17.70;99.90;;;;;;5115512;28;20179;-77
2023/04/14 08:14:13;;;;;;;8.87;1.40;;;17.60;99.90;;;;;;5115671;28;20223;-71
2023/04/14 08:16:41;;;;;;;5.50;1.40;;;17.50;99.90;;;;;;5115496;28;20170;-72
2023/04/14 08:19:09;;;;;;;4.50;1.40;;;17.50;99.90;;;;;;5115002;28;20236;-75
2023/04/14 08:21:36;;;;;;;3.13;1.80;;;17.40;99.90;;;;;;5115280;28;20180;-70
2023/04/14 08:24:05;;;;;;;5.53;2.20;;;17.40;99.90;;;;;;5115210;28;20197;-69
2023/04/14 08:29:55;;;;;;;14.07;2.70;;;17.30;99.90;;;;;;5114397;28;20259;-68
2023/04/14 08:32:22;;;;;;;6.93;2.20;;;17.20;99.90;;;;;;5114938;28;20230;-68
2023/04/14 08:34:50;;;;;;;5.70;2.00;;;17.20;99.90;;;;;;5115061;28;20551;-66
2023/04/14 08:37:18;;;;;;;5.83;1.60;;;17.20;99.90;;;;;;5115289;28;20210;-69
2023/04/14 08:39:45;;;;;;;6.93;1.80;;;17.10;99.90;;;;;;5113874;28;20630;-67
2023/04/14 08:42:19;;;;;;;6.23;1.80;;;17.00;99.90;;;;;;5114890;28;20628;-68
2023/04/14 08:44:48;;;;;;;7.57;1.90;;;17.00;99.90;;;;;;5114863;28;20175;-67
2023/04/14 08:47:16;;;;;;;4.33;1.73;;;17.00;99.90;;;;;;5114607;28;20179;-70
2023/04/14 08:49:55;;;;;;;5.27;1.47;;;16.90;99.90;;;;;;5113289;28;20203;-68
2023/04/14 08:52:27;;;;;;;4.00;1.27;;;16.90;99.90;;;;;;5114668;27;20255;-72
2023/04/14 08:54:57;;;;;;;7.80;2.43;;;16.80;99.90;;;;;;5113277;28;20536;-67
2023/04/14 08:57:26;;;;;;;7.30;2.13;;;16.80;99.90;;;;;;5114634;28;20225;-67
2023/04/14 08:59:56;;;;;;;5.97;1.90;;;16.70;99.90;;;;;;5114440;28;20256;-78
2023/04/14 09:02:25;;;;;;;5.43;1.80;;;16.60;99.90;;;;;;5114470;28;20207;-71
2023/04/14 09:04:53;;;;;;;7.13;2.07;;;16.60;99.90;;;;;;5114301;27;20190;-78
2023/04/14 09:07:22;;;;;;;5.80;2.40;;;16.60;99.90;;;;;;5114250;28;20189;-76
2023/04/14 09:09:49;;;;;;;9.20;2.63;;;16.60;99.90;;;;;;5112824;28;20560;-75
2023/04/14 09:12:18;;;;;;;10.53;3.00;;;16.50;99.90;;;;;;5114383;28;20501;-76
2023/04/14 09:14:47;;;;;;;10.90;2.57;;;16.40;99.90;;;;;;5114254;28;20170;-76
2023/04/14 09:17:16;;;;;;;5.87;2.77;;;16.50;99.90;;;;;;5113928;28;20293;-76
2023/04/14 09:19:44;;;;;;;8.33;2.57;;;16.50;99.90;;;;;;5112630;28;20237;-74
2023/04/14 09:22:12;;;;;;;7.37;3.00;;;16.40;99.90;;;;;;5114243;28;20246;-76
2023/04/14 09:24:40;;;;;;;8.07;3.37;;;16.40;99.90;;;;;;5114041;28;20183;-69
2023/04/14 09:27:08;;;;;;;7.87;2.70;;;16.40;99.90;;;;;;5114179;28;20175;-73
2023/04/14 09:29:37;;;;;;;8.27;3.10;;;16.40;99.90;;;;;;5114801;28;20194;-73
2023/04/14 09:32:06;;;;;;;10.73;3.20;;;16.40;99.90;;;;;;5114357;28;20182;-72
2023/04/14 09:34:33;;;;;;;7.53;3.30;;;16.40;99.90;;;;;;5114427;28;20182;-72
2023/04/14 09:37:06;;;;;;;7.33;3.50;;;16.50;99.90;;;;;;5113100;28;20256;-71
2023/04/14 09:39:49;;;;;;;10.33;3.47;;;16.40;99.90;;;;;;5114902;28;20286;-73
2023/04/14 09:42:18;;;;;;;8.27;3.33;;;16.40;99.90;;;;;;5113437;28;20705;-71
2023/04/14 09:44:56;;;;;;;8.90;2.63;;;16.30;99.90;;;;;;5114728;28;20614;-74
2023/04/14 09:47:25;;;;;;;12.43;3.43;;;16.20;99.90;;;;;;5113439;28;20183;-74
2023/04/14 09:50:03;;;;;;;7.13;3.00;;;16.20;99.90;;;;;;5114615;28;20187;-74
2023/04/14 09:52:40;;;;;;;11.83;4.13;;;16.10;99.90;;;;;;5105213;28;20183;-75
2023/04/14 09:55:11;;;;;;;12.20;3.43;;;16.10;99.90;;;;;;5093382;28;20184;-74
2023/04/14 09:57:50;;;;;;;8.70;3.23;;;16.20;99.90;;;;;;5093900;28;20235;-75
2023/04/14 10:00:22;;;;;;;9.57;3.43;;;16.20;99.90;;;;;;5094181;28;20269;-72
2023/04/14 10:02:56;;;;;;;11.70;3.50;;;16.20;99.90;;;;;;5093678;28;20541;-75
2023/04/14 10:05:31;;;;;;;9.77;3.13;;;16.20;99.90;;;;;;5093923;28;20206;-74
2023/04/14 10:08:05;;;;;;;8.50;3.23;;;16.20;99.90;;;;;;5093441;28;20580;-74
2023/04/14 10:10:33;;;;;;;13.07;4.73;;;16.10;99.90;;;;;;5100935;27;20380;-72
2023/04/14 10:13:01;;;;;;;9.53;4.70;;;16.10;99.90;;;;;;5093126;28;20225;-73
2023/04/14 10:15:29;;;;;;;11.73;5.10;;;16.10;99.90;;;;;;5095241;28;20219;-72
2023/04/14 10:17:57;;;;;;;12.17;4.27;;;16.00;99.90;;;;;;5106481;28;20692;-71
2023/04/14 10:20:25;;;;;;;9.90;4.23;;;16.00;99.90;;;;;;5111683;28;20287;-73
2023/04/14 10:22:55;;;;;;;12.63;4.73;;;16.00;99.90;;;;;;5113830;28;20183;-73
2023/04/14 10:25:25;;;;;;;14.20;3.80;;;15.90;99.90;;;;;;5097545;28;20179;-72
2023/04/14 10:27:53;;;;;;;8.80;3.90;;;15.90;99.90;;;;;;5092772;28;20266;-73
2023/04/14 10:30:21;;;;;;;11.50;4.00;;;15.80;99.90;;;;;;5108762;28;20264;-71
2023/04/14 10:32:49;;;;;;;10.63;4.20;;;15.80;99.90;;;;;;5113331;28;20634;-74
2023/04/14 10:35:18;;;;;;;8.10;3.33;;;15.70;99.90;;;;;;5113539;28;20174;-75
2023/04/14 10:37:52;;;;;;;7.97;3.93;;;15.80;99.90;;;;;;5113481;28;20206;-75
2023/04/14 10:40:20;;;;;;;8.57;3.60;;;15.80;99.90;;;;;;5112139;28;20188;-74
2023/04/14 10:42:56;;;;;;;11.87;3.87;;;15.80;99.90;;;;;;5102413;28;20190;-73
2023/04/14 10:45:24;;;;;;;7.83;3.63;;;15.70;99.90;;;;;;5092734;28;20178;-72
2023/04/14 10:47:52;;;;;;;7.80;3.67;;;15.70;99.90;;;;;;5092833;28;20185;-71
2023/04/14 10:50:24;;;;;;;8.33;2.97;;;15.70;99.90;;;;;;5094158;28;20179;-70
2023/04/14 10:52:58;;;;;;;5.87;2.93;;;15.70;99.90;;;;;;5106060;28;20174;-72
2023/04/14 10:55:44;;;;;;;8.17;3.33;;;15.80;99.90;;;;;;5113295;28;20181;-76
2023/04/14 10:58:22;;;;;;;8.37;3.60;;;15.80;99.90;;;;;;5112927;28;20286;-70
2023/04/14 11:00:50;;;;;;;6.93;2.60;;;15.80;99.90;;;;;;5113039;28;20178;-74
2023/04/14 11:03:18;;;;;;;9.73;2.93;;;15.90;99.90;;;;;;5112431;28;20175;-73
2023/04/14 11:05:49;;;;;;;7.27;2.63;;;15.90;99.90;;;;;;5112523;28;20182;-76
2023/04/14 11:08:33;;;;;;;9.87;2.50;;;15.90;99.90;;;;;;5112797;28;20175;-77
2023/04/14 11:11:05;;;;;;;8.30;2.57;;;15.90;99.90;;;;;;5113418;28;20178;-74
2023/04/14 11:13:37;;;;;;;8.87;3.17;;;15.90;99.90;;;;;;5112786;28;20193;-76
2023/04/14 11:16:06;;;;;;;5.57;2.10;;;15.90;99.90;;;;;;5106679;28;20553;-75
2023/04/14 11:18:41;;;;;;;5.70;2.40;;;15.90;99.90;;;;;;5092320;28;20259;-75
2023/04/14 11:21:11;;;;;;;8.10;2.73;;;15.90;99.90;;;;;;5092712;28;20597;-74
2023/04/14 11:23:40;;;;;;;5.40;2.17;;;15.90;99.90;;;;;;5092739;28;20631;-75
2023/04/14 11:26:15;;;;;;;7.03;2.10;;;15.80;99.90;;;;;;5092623;28;20183;-76
2023/04/14 11:28:45;;;;;;;6.30;2.07;;;15.70;99.90;;;;;;5102863;28;20174;-75
2023/04/14 11:31:17;;;;;;;6.93;2.20;;;15.80;99.90;;;;;;5096932;28;20179;-74
2023/04/14 11:33:45;;;;;;;6.93;2.40;;;15.80;99.90;;;;;;5092789;28;20254;-73
2023/04/14 11:36:13;;;;;;;6.13;2.33;;;15.70;99.90;;;;;;5103155;28;20244;-74
2023/04/14 11:38:41;;;;;;;6.27;2.20;;;15.70;99.90;;;;;;5101986;28;20207;-74
2023/04/14 11:41:10;;;;;;;4.80;2.20;;;15.60;99.90;;;;;;5107953;28;20317;-77
2023/04/14 11:43:45;;;;;;;6.40;2.30;;;15.50;99.90;;;;;;5112586;28;20248;-77
2023/04/14 11:46:14;;;;;;;8.87;2.43;;;15.40;99.90;;;;;;5111770;28;20645;-76
2023/04/14 11:48:42;;;;;;;6.73;2.17;;;15.40;99.90;;;;;;5092404;28;20168;-73
2023/04/14 11:51:10;;;;;;;10.10;2.17;;;15.30;99.90;;;;;;5092525;28;20232;-72
2023/04/14 11:53:39;;;;;;;5.50;2.03;;;15.40;99.90;;;;;;5112334;28;20550;-75
2023/04/14 11:56:11;;;;;;;6.90;1.87;;;15.60;99.90;;;;;;5112394;28;20179;-75
2023/04/14 11:58:39;;;;;;;8.77;2.20;;;15.10;99.90;;;;;;5112382;28;20217;-76
2023/04/14 12:01:07;;;;;;;6.27;2.13;;;15.10;99.90;;;;;;5106484;28;20168;-72
2023/04/14 12:03:37;;;;;;;4.50;1.70;;;15.00;99.90;;;;;;5096360;28;20191;-72
2023/04/14 12:06:05;;;;;;;3.67;1.67;;;15.00;99.90;;;;;;5092308;28;20519;-75
2023/04/14 12:08:33;;;;;;;3.90;2.10;;;15.00;99.90;;;;;;5090735;28;20176;-74
2023/04/14 12:11:14;;;;;;;8.17;2.13;;;14.90;99.90;;;;;;5092013;28;20179;-74
2023/04/14 12:13:43;;;;;;;3.97;1.90;;;14.90;99.90;;;;;;5092229;28;20183;-75
2023/04/14 12:16:12;;;;;;;4.70;1.80;;;14.80;99.90;;;;;;5095933;28;20197;-76
2023/04/14 12:18:40;;;;;;;5.80;2.00;;;14.80;99.90;;;;;;5095526;28;20597;-75
2023/04/14 12:21:08;;;;;;;4.93;2.17;;;14.70;99.90;;;;;;5095914;28;20225;-75
2023/04/14 12:23:41;;;;;;;4.87;2.17;;;14.60;99.90;;;;;;5095335;28;20202;-74
2023/04/14 12:26:12;;;;;;;8.33;2.00;;;14.60;99.90;;;;;;5095927;28;20568;-76
2023/04/14 12:28:40;;;;;;;4.57;2.00;;;14.50;99.90;;;;;;5095636;28;20221;-75
2023/04/14 12:31:12;;;;;;;4.20;1.70;;;14.50;99.90;;;;;;5095398;28;20199;-76
2023/04/14 12:33:40;;;;;;;4.83;2.03;;;14.50;99.90;;;;;;5095701;28;20180;-74
2023/04/14 12:36:12;;;;;;;9.43;2.27;;;14.40;99.90;;;;;;5095777;28;20195;-73
2023/04/14 12:38:40;;;;;;;8.43;2.37;;;14.30;99.90;;;;;;5095168;28;20217;-75
2023/04/14 12:41:09;;;;;;;3.57;1.70;;;14.30;99.90;;;;;;5095559;28;20178;-70
2023/04/14 12:43:40;;;;;;;7.37;1.63;;;14.30;99.90;;;;;;5095290;28;20241;-71
2023/04/14 12:46:07;;;;;;;2.13;1.50;;;14.30;99.90;;;;;;5095387;28;20254;-75
2023/04/14 12:48:40;;;;;;;5.13;2.10;;;14.40;99.90;;;;;;5094919;28;20183;-73
2023/04/14 12:51:10;;;;;;;5.93;2.00;;;14.40;99.90;;;;;;5095289;28;20167;-74
2023/04/14 12:53:38;;;;;;;9.37;1.97;;;14.30;99.90;;;;;;5095279;28;20233;-71
2023/04/14 12:56:08;;;;;;;6.20;1.80;;;14.30;99.90;;;;;;5094934;28;20206;-69
2023/04/14 12:58:41;;;;;;;7.30;1.60;;;14.30;99.90;;;;;;5095218;28;20210;-66
2023/04/14 13:01:10;;;;;;;7.20;1.90;;;14.40;99.90;;;;;;5094802;28;20175;-69
2023/04/14 13:03:45;;;;;;;5.77;1.90;;;14.40;99.90;;;;;;5095295;28;20175;-68